createdAt,value
2023-03-08T00:01:33.146Z,73572.41
2023-03-08T00:04:01.612Z,73567.96
2023-03-08T00:06:30.147Z,73572.00
2023-03-08T00:09:02.557Z,73579.68
2023-03-08T00:11:31.873Z,73572.81
2023-03-08T00:14:02.061Z,73565.14
2023-03-08T00:16:30.595Z,73560.70
2023-03-08T00:18:59.682Z,73567.16
2023-03-08T00:21:28.116Z,73572.82
2023-03-08T00:23:56.486Z,73573.63
2023-03-08T00:26:24.852Z,73575.24
2023-03-08T00:28:53.211Z,73580.48
2023-03-08T00:31:22.092Z,73583.31
2023-03-08T00:33:55.041Z,73584.93
2023-03-08T00:36:23.799Z,73577.26
2023-03-08T00:38:52.777Z,73562.30
2023-03-08T00:41:21.348Z,73546.55
2023-03-08T00:43:50.647Z,73535.65
2023-03-08T00:46:19.190Z,73530.00
2023-03-08T00:48:47.660Z,73523.55
2023-03-08T00:51:18.910Z,73516.67
2023-03-08T00:53:49.034Z,73513.44
2023-03-08T00:56:17.955Z,73516.67
2023-03-08T00:58:46.829Z,73511.83
2023-03-08T01:01:18.360Z,73513.45
2023-03-08T01:03:49.041Z,73523.14
2023-03-08T01:06:17.545Z,73524.75
2023-03-08T01:08:46.569Z,73520.30
2023-03-08T01:11:23.744Z,73512.63
2023-03-08T01:13:53.012Z,73515.46
2023-03-08T01:16:23.356Z,73513.44
2023-03-08T01:18:52.848Z,73507.79
2023-03-08T01:21:22.038Z,73513.85
2023-03-08T01:23:50.938Z,73515.46
2023-03-08T01:26:21.818Z,73513.04
2023-03-08T01:28:50.537Z,73497.69
2023-03-08T01:31:21.624Z,73490.02
2023-03-08T01:33:50.597Z,73485.17
2023-03-08T01:36:21.563Z,73478.71
2023-03-08T01:38:50.438Z,73469.42
2023-03-08T01:41:27.974Z,73459.32
2023-03-08T01:43:56.880Z,73448.02
2023-03-08T01:46:27.247Z,73437.10
2023-03-08T01:49:18.425Z,73437.11
2023-03-08T01:52:17.615Z,73443.97
2023-03-08T01:54:56.057Z,73452.45
2023-03-08T01:57:37.894Z,73453.66
2023-03-08T02:00:16.868Z,73442.77
2023-03-08T02:02:57.087Z,73431.86
2023-03-08T02:05:27.508Z,73410.86
2023-03-08T02:08:00.020Z,73389.45
2023-03-08T02:10:31.566Z,73376.12
2023-03-08T02:13:00.283Z,73362.39
2023-03-08T02:15:28.941Z,73348.66
2023-03-08T02:17:58.413Z,73349.06
2023-03-08T02:20:36.335Z,73350.27
2023-03-08T02:23:13.283Z,73342.60
2023-03-08T02:25:55.412Z,73331.30
2023-03-08T02:28:25.503Z,73316.34
2023-03-08T02:30:55.676Z,73303.42
2023-03-08T02:33:24.290Z,73294.13
2023-03-08T02:35:52.949Z,73286.86
2023-03-08T02:38:22.233Z,73283.23
2023-03-08T02:40:53.913Z,73280.80
2023-03-08T02:43:22.346Z,73281.61
2023-03-08T02:45:51.193Z,73286.86
2023-03-08T02:48:20.314Z,73286.46
2023-03-08T02:50:48.747Z,73292.52
2023-03-08T02:53:17.119Z,73295.34
2023-03-08T02:55:46.355Z,73291.71
2023-03-08T02:58:15.056Z,73275.96
2023-03-08T03:00:43.365Z,73265.46
2023-03-08T03:03:11.820Z,73265.46
2023-03-08T03:05:44.270Z,73271.11
2023-03-08T03:08:15.719Z,73272.73
2023-03-08T03:10:44.208Z,73273.54
2023-03-08T03:13:12.600Z,73278.79
2023-03-08T03:15:41.055Z,73280.00
2023-03-08T03:18:09.781Z,73280.40
2023-03-08T03:20:38.387Z,73280.80
2023-03-08T03:23:08.398Z,73280.40
2023-03-08T03:25:43.951Z,73278.38
2023-03-08T03:28:14.602Z,73284.04
2023-03-08T03:30:43.297Z,73283.23
2023-03-08T03:33:12.200Z,73288.89
2023-03-08T03:35:40.541Z,73295.35
2023-03-08T03:38:09.039Z,73309.89
2023-03-08T03:40:37.848Z,73333.31
2023-03-08T03:43:07.004Z,73352.70
2023-03-08T03:45:35.424Z,73361.98
2023-03-08T03:48:04.048Z,73380.96
2023-03-08T03:50:32.562Z,73391.47
2023-03-08T03:53:04.985Z,73401.98
2023-03-08T03:55:33.453Z,73417.33
2023-03-08T03:58:03.442Z,73435.48
2023-03-08T04:00:32.629Z,73454.48
2023-03-08T04:03:13.058Z,73469.02
2023-03-08T04:05:41.523Z,73476.29
2023-03-08T04:08:09.931Z,73489.61
2023-03-08T04:10:39.601Z,73504.16
2023-03-08T04:13:10.247Z,73506.58
2023-03-08T04:15:38.835Z,73506.98
2023-03-08T04:18:08.873Z,73510.20
2023-03-08T04:20:38.528Z,73517.08
2023-03-08T04:23:06.882Z,73525.97
2023-03-08T04:25:39.297Z,73525.55
2023-03-08T04:28:07.886Z,73526.77
2023-03-08T04:30:36.230Z,73529.20
2023-03-08T04:33:05.138Z,73531.61
2023-03-08T04:35:39.901Z,73534.84
2023-03-08T04:38:08.534Z,73534.05
2023-03-08T04:40:56.900Z,73539.70
2023-03-08T04:43:25.453Z,73544.54
2023-03-08T04:45:53.905Z,73542.52
2023-03-08T04:48:23.821Z,73545.35
2023-03-08T04:50:56.022Z,73541.71
2023-03-08T04:53:25.893Z,73540.10
2023-03-08T04:55:55.031Z,73538.89
2023-03-08T04:58:23.711Z,73535.25
2023-03-08T05:00:52.209Z,73530.81
2023-03-08T05:03:20.862Z,73529.60
2023-03-08T05:05:51.979Z,73527.17
2023-03-08T05:08:22.441Z,73521.52
2023-03-08T05:11:00.492Z,73511.83
2023-03-08T05:13:36.473Z,73504.55
2023-03-08T05:16:07.208Z,73494.87
2023-03-08T05:18:36.206Z,73497.29
2023-03-08T05:21:11.535Z,73501.33
2023-03-08T05:23:40.602Z,73516.27
2023-03-08T05:26:11.100Z,73524.75
2023-03-08T05:28:39.479Z,73529.20
2023-03-08T05:31:14.396Z,73531.21
2023-03-08T05:33:46.592Z,73530.80
2023-03-08T05:36:16.344Z,73526.77
2023-03-08T05:38:45.042Z,73521.52
2023-03-08T05:41:15.839Z,73515.86
2023-03-08T05:43:46.906Z,73510.61
2023-03-08T05:46:18.718Z,73506.17
2023-03-08T05:48:47.363Z,73487.59
2023-03-08T05:51:19.322Z,73473.05
2023-03-08T05:53:47.925Z,73466.19
2023-03-08T05:56:19.702Z,73452.45
2023-03-08T05:58:54.098Z,73438.73
2023-03-08T06:01:26.173Z,73435.09
2023-03-08T06:03:58.116Z,73437.91
2023-03-08T06:06:28.327Z,73425.80
2023-03-08T06:08:59.719Z,73410.86
2023-03-08T06:11:28.439Z,73403.98
2023-03-08T06:13:57.050Z,73400.36
2023-03-08T06:16:26.116Z,73404.39
2023-03-08T06:18:54.616Z,73413.27
2023-03-08T06:21:23.217Z,73421.77
2023-03-08T06:23:57.829Z,73435.89
2023-03-08T06:26:26.211Z,73442.36
2023-03-08T06:28:54.612Z,73455.28
2023-03-08T06:31:23.457Z,73463.77
2023-03-08T06:33:53.266Z,73463.77
2023-03-08T06:36:24.258Z,73462.96
2023-03-08T06:38:52.702Z,73467.40
2023-03-08T06:41:22.033Z,73462.55
2023-03-08T06:43:53.292Z,73465.77
2023-03-08T06:46:21.930Z,73463.36
2023-03-08T06:48:50.705Z,73460.94
2023-03-08T06:51:19.681Z,73456.09
2023-03-08T06:53:48.340Z,73450.44
2023-03-08T06:56:20.087Z,73450.02
2023-03-08T06:58:48.682Z,73440.74
2023-03-08T07:01:17.258Z,73430.64
2023-03-08T07:03:46.701Z,73426.20
2023-03-08T07:06:15.413Z,73411.26
2023-03-08T07:08:43.735Z,73402.38
2023-03-08T07:11:12.096Z,73387.02
2023-03-08T07:13:40.577Z,73373.70
2023-03-08T07:16:11.119Z,73355.52
2023-03-08T07:18:39.979Z,73342.60
2023-03-08T07:21:10.488Z,73331.70
2023-03-08T07:23:38.897Z,73322.00
2023-03-08T07:26:08.296Z,73301.00
2023-03-08T07:28:36.851Z,73273.13
2023-03-08T07:31:05.383Z,73273.14
2023-03-08T07:33:35.103Z,73274.75
2023-03-08T07:36:03.837Z,73276.77
2023-03-08T07:38:32.136Z,73253.74
2023-03-08T07:41:00.583Z,73219.83
2023-03-08T07:43:28.950Z,73193.58
2023-03-08T07:46:03.064Z,73181.86
2023-03-08T07:48:32.328Z,73155.21
2023-03-08T07:51:07.473Z,73120.88
2023-03-08T07:53:38.842Z,73099.08
2023-03-08T07:56:07.676Z,73071.61
2023-03-08T07:58:36.086Z,73049.40
2023-03-08T08:01:13.049Z,73031.63
2023-03-08T08:03:43.698Z,73015.88
2023-03-08T08:06:12.092Z,72994.06
2023-03-08T08:08:40.882Z,72971.45
2023-03-08T08:11:14.511Z,72958.13
2023-03-08T08:13:43.055Z,72938.73
2023-03-08T08:16:11.454Z,72939.55
2023-03-08T08:18:40.113Z,72939.55
2023-03-08T08:21:11.546Z,72925.02
2023-03-08T08:23:41.259Z,72902.80
2023-03-08T08:26:15.389Z,72873.32
2023-03-08T08:28:45.272Z,72853.94
2023-03-08T08:31:17.117Z,72846.27
2023-03-08T08:33:45.527Z,72850.30
2023-03-08T08:36:16.754Z,72876.55
2023-03-08T08:38:46.682Z,72878.57
2023-03-08T08:41:17.504Z,72876.55
2023-03-08T08:43:47.218Z,72873.33
2023-03-08T08:46:16.654Z,72862.82
2023-03-08T08:48:45.083Z,72844.65
2023-03-08T08:51:14.571Z,72805.08
2023-03-08T08:53:44.441Z,72776.81
2023-03-08T08:56:26.186Z,72765.50
2023-03-08T08:59:02.421Z,72749.75
2023-03-08T09:01:32.825Z,72732.80
2023-03-08T09:04:01.245Z,72714.22
2023-03-08T09:06:31.180Z,72708.56
2023-03-08T09:08:59.584Z,72723.91
2023-03-08T09:11:29.068Z,72740.87
2023-03-08T09:13:57.668Z,72738.45
2023-03-08T09:16:28.871Z,72741.67
2023-03-08T09:18:58.494Z,72750.96
2023-03-08T09:21:28.307Z,72750.96
2023-03-08T09:24:00.009Z,72734.81
2023-03-08T09:26:32.936Z,72731.18
2023-03-08T09:29:05.190Z,72735.62
2023-03-08T09:31:36.497Z,72740.46
2023-03-08T09:34:09.313Z,72739.26
2023-03-08T09:36:39.925Z,72731.59
2023-03-08T09:39:10.583Z,72702.91
2023-03-08T09:41:45.008Z,72697.25
2023-03-08T09:44:32.780Z,72699.68
2023-03-08T09:47:09.246Z,72689.18
2023-03-08T09:49:42.257Z,72700.89
2023-03-08T09:52:29.930Z,72689.99
2023-03-08T09:55:03.433Z,72682.31
2023-03-08T09:57:41.779Z,72679.48
2023-03-08T10:00:20.334Z,72679.48
2023-03-08T10:03:13.045Z,72658.48
2023-03-08T10:05:54.448Z,72625.79
2023-03-08T10:08:27.105Z,72593.48
2023-03-08T10:11:12.453Z,72571.27
2023-03-08T10:13:49.824Z,72551.89
2023-03-08T10:16:28.213Z,72548.66
2023-03-08T10:19:17.823Z,72582.58
2023-03-08T10:21:48.248Z,72614.08
2023-03-08T10:24:41.471Z,72657.27
2023-03-08T10:27:21.384Z,72698.47
2023-03-08T10:29:55.719Z,72709.77
2023-03-08T10:32:25.764Z,72722.29
2023-03-08T10:35:01.922Z,72709.77
2023-03-08T10:37:32.684Z,72692.01
2023-03-08T10:40:06.232Z,72696.04
2023-03-08T10:42:36.165Z,72710.18
2023-03-08T10:45:24.264Z,72734.01
2023-03-08T10:48:04.240Z,72759.85
2023-03-08T10:50:37.671Z,72770.34
2023-03-08T10:53:20.143Z,72773.17
2023-03-08T10:55:51.323Z,72791.75
2023-03-08T10:58:33.704Z,72807.10
2023-03-08T11:01:32.735Z,72811.14
2023-03-08T11:04:16.954Z,72823.25
2023-03-08T11:06:50.372Z,72821.23
2023-03-08T11:09:33.546Z,72820.42
2023-03-08T11:12:02.054Z,72803.45
2023-03-08T11:14:30.484Z,72808.30
2023-03-08T11:17:17.088Z,72793.77
2023-03-08T11:20:00.681Z,72805.08
2023-03-08T11:23:04.325Z,72797.80
2023-03-08T11:25:46.522Z,72778.42
2023-03-08T11:28:28.266Z,72767.92
2023-03-08T11:31:16.910Z,72771.96
2023-03-08T11:33:54.602Z,72764.29
2023-03-08T11:36:44.906Z,72754.20
2023-03-08T11:39:19.987Z,72737.23
2023-03-08T11:42:02.689Z,72706.54
2023-03-08T11:44:54.512Z,72700.89
2023-03-08T11:47:58.202Z,72679.89
2023-03-08T11:50:34.113Z,72656.07
2023-03-08T11:53:28.790Z,72666.57
2023-03-08T11:56:09.362Z,72680.30
2023-03-08T11:58:40.604Z,72677.88
2023-03-08T12:01:23.153Z,72689.17
2023-03-08T12:03:58.906Z,72702.10
2023-03-08T12:06:33.741Z,72698.06
2023-03-08T12:09:13.936Z,72682.31
2023-03-08T12:11:49.847Z,72678.67
2023-03-08T12:14:26.496Z,72678.68
2023-03-08T12:17:07.688Z,72670.61
2023-03-08T12:19:49.496Z,72671.02
2023-03-08T12:22:31.351Z,72650.41
2023-03-08T12:25:13.215Z,72620.13
2023-03-08T12:28:04.965Z,72590.65
2023-03-08T12:31:26.341Z,72581.77
2023-03-08T12:33:57.994Z,72591.86
2023-03-08T12:36:44.172Z,72585.40
2023-03-08T12:39:35.882Z,72578.14
2023-03-08T12:42:10.346Z,72556.33
2023-03-08T12:44:39.772Z,72522.41
2023-03-08T12:47:14.177Z,72507.46
2023-03-08T12:49:46.348Z,72498.19
2023-03-08T12:52:18.546Z,72518.37
2023-03-08T12:55:04.207Z,72537.75
2023-03-08T12:58:02.807Z,72553.90
2023-03-08T13:00:34.240Z,72536.54
2023-03-08T13:03:06.972Z,72546.23
2023-03-08T13:05:37.707Z,72546.63
2023-03-08T13:08:16.077Z,72543.81
2023-03-08T13:10:50.346Z,72545.42
2023-03-08T13:13:38.103Z,72557.95
2023-03-08T13:16:26.479Z,72573.29
2023-03-08T13:19:28.622Z,72587.02
2023-03-08T13:22:09.165Z,72608.02
2023-03-08T13:24:46.714Z,72620.94
2023-03-08T13:27:56.201Z,72626.19
2023-03-08T13:30:47.336Z,72619.33
2023-03-08T13:33:27.743Z,72623.77
2023-03-08T13:36:05.923Z,72619.33
2023-03-08T13:38:37.316Z,72624.16
2023-03-08T13:41:05.697Z,72622.55
2023-03-08T13:43:35.727Z,72646.38
2023-03-08T13:46:11.045Z,72653.25
2023-03-08T13:48:44.478Z,72668.59
2023-03-08T13:51:19.230Z,72676.66
2023-03-08T13:53:47.749Z,72695.23
2023-03-08T13:56:26.274Z,72708.56
2023-03-08T13:58:58.007Z,72711.39
2023-03-08T14:01:27.570Z,72713.41
2023-03-08T14:03:58.517Z,72707.76
2023-03-08T14:06:38.273Z,72695.64
2023-03-08T14:09:07.499Z,72686.35
2023-03-08T14:11:38.948Z,72680.30
2023-03-08T14:14:16.269Z,72673.43
2023-03-08T14:16:44.841Z,72669.80
2023-03-08T14:19:35.494Z,72675.05
2023-03-08T14:22:12.808Z,72680.70
2023-03-08T14:24:43.955Z,72682.71
2023-03-08T14:27:15.339Z,72684.73
2023-03-08T14:29:45.833Z,72681.91
2023-03-08T14:32:14.958Z,72684.34
2023-03-08T14:34:45.684Z,72681.91
2023-03-08T14:37:29.006Z,72686.35
2023-03-08T14:40:17.389Z,72687.16
2023-03-08T14:42:48.089Z,72688.77
2023-03-08T14:45:26.741Z,72689.59
2023-03-08T14:48:00.723Z,72696.85
2023-03-08T14:50:34.344Z,72689.59
2023-03-08T14:53:04.238Z,72696.85
2023-03-08T14:55:35.585Z,72706.14
2023-03-08T14:58:11.859Z,72711.39
2023-03-08T15:00:58.281Z,72713.00
2023-03-08T15:03:27.238Z,72708.56
2023-03-08T15:05:56.364Z,72713.01
2023-03-08T15:08:25.898Z,72715.84
2023-03-08T15:10:54.832Z,72724.31
2023-03-08T15:13:24.374Z,72736.03
2023-03-08T15:15:53.014Z,72742.48
2023-03-08T15:18:21.537Z,72752.17
2023-03-08T15:20:52.289Z,72755.41
2023-03-08T15:23:25.488Z,72757.83
2023-03-08T15:25:54.575Z,72761.86
2023-03-08T15:28:23.772Z,72760.66
2023-03-08T15:30:54.860Z,72773.17
2023-03-08T15:33:23.538Z,72776.81
2023-03-08T15:35:52.301Z,72782.86
2023-03-08T15:38:21.632Z,72788.92
2023-03-08T15:40:50.089Z,72794.98
2023-03-08T15:43:18.529Z,72796.60
2023-03-08T15:45:47.955Z,72803.86
2023-03-08T15:48:18.724Z,72809.92
2023-03-08T15:50:47.258Z,72823.25
2023-03-08T15:53:26.173Z,72834.15
2023-03-08T15:56:02.882Z,72842.63
2023-03-08T15:58:31.246Z,72846.67
2023-03-08T16:01:00.306Z,72857.57
2023-03-08T16:03:31.252Z,72862.83
2023-03-08T16:06:00.215Z,72868.88
2023-03-08T16:08:29.646Z,72881.40
2023-03-08T16:11:04.033Z,72895.94
2023-03-08T16:13:32.679Z,72913.30
2023-03-08T16:16:03.863Z,72927.03
2023-03-08T16:18:36.192Z,72939.55
2023-03-08T16:21:09.860Z,72953.69
2023-03-08T16:23:39.665Z,72958.54
2023-03-08T16:26:16.750Z,72965.40
2023-03-08T16:28:47.583Z,72970.24
2023-03-08T16:31:21.110Z,72973.48
2023-03-08T16:33:49.606Z,72977.52
2023-03-08T16:36:19.274Z,72981.15
2023-03-08T16:38:48.277Z,72985.59
2023-03-08T16:41:16.634Z,72986.80
2023-03-08T16:43:47.633Z,72985.98
2023-03-08T16:46:18.981Z,72981.55
2023-03-08T16:48:49.975Z,72988.82
2023-03-08T16:51:20.085Z,73002.55
2023-03-08T16:53:49.505Z,73009.02
2023-03-08T16:56:27.008Z,73011.84
2023-03-08T16:58:57.739Z,73022.34
2023-03-08T17:01:27.732Z,73026.38
2023-03-08T17:03:57.323Z,73029.20
2023-03-08T17:06:29.095Z,73036.88
2023-03-08T17:08:58.729Z,73049.40
2023-03-08T17:11:29.518Z,73061.11
2023-03-08T17:14:07.826Z,73068.38
2023-03-08T17:16:37.701Z,73082.11
2023-03-08T17:19:08.350Z,73100.28
2023-03-08T17:21:38.578Z,73104.73
2023-03-08T17:24:10.924Z,73119.27
2023-03-08T17:26:47.619Z,73135.81
2023-03-08T17:29:16.645Z,73151.17
2023-03-08T17:31:45.370Z,73157.23
2023-03-08T17:34:14.717Z,73164.48
2023-03-08T17:36:43.666Z,73169.74
2023-03-08T17:39:12.162Z,73169.73
2023-03-08T17:41:40.647Z,73166.91
2023-03-08T17:44:09.217Z,73168.13
2023-03-08T17:46:38.171Z,73172.16
2023-03-08T17:49:07.036Z,73175.40
2023-03-08T17:51:35.564Z,73180.24
2023-03-08T17:54:04.428Z,73181.86
2023-03-08T17:56:33.009Z,73180.23
2023-03-08T17:59:02.147Z,73182.27
2023-03-08T18:01:31.984Z,73180.24
2023-03-08T18:04:01.291Z,73172.98
2023-03-08T18:06:34.274Z,73167.33
2023-03-08T18:09:06.576Z,73162.88
2023-03-08T18:11:38.014Z,73158.03
2023-03-08T18:14:08.138Z,73151.98
2023-03-08T18:16:36.639Z,73142.69
2023-03-08T18:19:06.016Z,73130.56
2023-03-08T18:21:35.602Z,73125.32
2023-03-08T18:24:05.398Z,73115.63
2023-03-08T18:26:33.734Z,73106.34
2023-03-08T18:29:02.769Z,73108.36
2023-03-08T18:31:32.376Z,73107.95
2023-03-08T18:34:00.893Z,73107.55
2023-03-08T18:36:29.263Z,73105.53
2023-03-08T18:38:58.353Z,73103.11
2023-03-08T18:41:30.500Z,73095.03
2023-03-08T18:44:00.163Z,73082.52
2023-03-08T18:46:31.256Z,73072.41
2023-03-08T18:49:13.021Z,73068.77
2023-03-08T18:51:42.920Z,73065.14
2023-03-08T18:54:15.003Z,73066.36
2023-03-08T18:56:44.020Z,73065.14
2023-03-08T18:59:13.968Z,73064.75
2023-03-08T19:01:44.733Z,73062.73
2023-03-08T19:04:13.217Z,73057.07
2023-03-08T19:06:42.426Z,73057.48
2023-03-08T19:09:13.792Z,73055.45
2023-03-08T19:12:52.522Z,73048.59
2023-03-08T19:33:39.176Z,73018.30
2023-03-08T19:36:56.072Z,73030.02
2023-03-08T19:40:15.560Z,73044.15
2023-03-08T19:43:36.389Z,73044.14
2023-03-08T19:49:57.321Z,73073.23
2023-03-08T19:53:43.493Z,73066.77
2023-03-08T19:57:40.164Z,73081.30
2023-03-08T20:11:18.227Z,73117.24
2023-03-08T20:14:14.153Z,73123.30
2023-03-08T20:16:46.592Z,73118.05
2023-03-08T20:19:18.901Z,73102.70
2023-03-08T20:21:47.970Z,73101.90
2023-03-08T20:24:21.622Z,73101.49
2023-03-08T20:26:55.432Z,73099.48
2023-03-08T20:29:32.179Z,73095.03
2023-03-08T20:32:27.359Z,73103.52
2023-03-08T20:35:03.320Z,73097.45
2023-03-08T20:37:36.712Z,73108.77
2023-03-08T20:40:28.620Z,73100.69
2023-03-08T20:42:58.402Z,73111.59
2023-03-08T20:45:30.414Z,73109.16
2023-03-08T20:48:03.400Z,73117.64
2023-03-08T20:50:32.295Z,73126.94
2023-03-08T20:53:05.068Z,73130.57
2023-03-08T20:55:54.656Z,73132.19
2023-03-08T20:58:33.952Z,73147.94
2023-03-08T21:01:19.514Z,73139.85
2023-03-08T21:04:05.636Z,73133.40
2023-03-08T21:06:34.511Z,73128.14
2023-03-08T21:09:07.555Z,73119.27
2023-03-08T21:11:40.067Z,73120.48
2023-03-08T21:14:09.650Z,73115.22
2023-03-08T21:16:38.218Z,73109.58
2023-03-08T21:19:09.695Z,73118.45
2023-03-08T21:21:43.409Z,73117.65
2023-03-08T21:24:17.319Z,73122.48
2023-03-08T21:26:52.562Z,73128.55
2023-03-08T21:29:27.142Z,73130.16
2023-03-08T21:31:54.705Z,73125.73
2023-03-08T21:34:25.975Z,73122.48
2023-03-08T21:36:54.641Z,73113.60
2023-03-08T21:39:22.501Z,73105.53
2023-03-08T21:41:50.156Z,73095.43
2023-03-08T21:44:21.038Z,73093.42
2023-03-08T21:46:55.998Z,73084.13
2023-03-08T21:49:29.316Z,73078.88
2023-03-08T21:51:58.194Z,73082.92
2023-03-08T21:54:29.572Z,73085.74
2023-03-08T21:57:01.448Z,73085.34
2023-03-08T21:59:31.921Z,73082.92
2023-03-08T22:02:04.882Z,73077.66
2023-03-08T22:04:32.489Z,73073.22
2023-03-08T22:07:02.856Z,73068.38
2023-03-08T22:09:34.819Z,73065.15
2023-03-08T22:12:04.533Z,73069.19
2023-03-08T22:14:33.308Z,73067.57
2023-03-08T22:17:06.526Z,73051.83
2023-03-08T22:19:35.195Z,73049.80
2023-03-08T22:22:03.212Z,73034.86
2023-03-08T22:24:32.400Z,73021.13
2023-03-08T22:27:00.907Z,73014.66
2023-03-08T22:29:33.275Z,73019.91
2023-03-08T22:32:05.545Z,73021.13
2023-03-08T22:34:37.103Z,73022.34
2023-03-08T22:37:05.626Z,73025.58
2023-03-08T22:39:37.713Z,73031.63
2023-03-08T22:42:04.983Z,73031.22
2023-03-08T22:44:34.995Z,73025.16
2023-03-08T22:47:02.261Z,73019.52
2023-03-08T22:49:30.242Z,73009.02
2023-03-08T22:51:58.812Z,72996.09
2023-03-08T22:54:26.029Z,72981.96
2023-03-08T22:56:53.276Z,72972.66
2023-03-08T22:59:20.545Z,72966.60
2023-03-08T23:01:47.794Z,72969.03
2023-03-08T23:04:15.310Z,72966.20
2023-03-08T23:06:42.468Z,72961.36
2023-03-08T23:09:12.223Z,72962.57
2023-03-08T23:11:43.035Z,72956.52
2023-03-08T23:14:14.394Z,72959.73
2023-03-08T23:16:45.669Z,72969.84
2023-03-08T23:19:17.405Z,72982.77
2023-03-08T23:21:44.611Z,72996.09
2023-03-08T23:24:15.191Z,72993.27
2023-03-08T23:26:43.442Z,72998.52
2023-03-08T23:29:10.590Z,72994.88
2023-03-08T23:31:38.368Z,72993.27
2023-03-08T23:34:05.688Z,72987.61
2023-03-08T23:36:33.591Z,72976.30
2023-03-08T23:39:02.408Z,72954.49
2023-03-08T23:41:31.099Z,72945.61
2023-03-08T23:44:00.039Z,72948.04
2023-03-08T23:46:28.679Z,72952.06
2023-03-08T23:48:57.739Z,72945.61
2023-03-08T23:51:27.867Z,72938.34
2023-03-08T23:53:58.041Z,72939.14
2023-03-08T23:56:37.019Z,72946.41
2023-03-08T23:59:11.283Z,72947.63
